Terminal Aerodrome Forecast
Issued by NWS North Platte, NE

Home | Current Version | Previous Version | Text Only | Print | Product List | Glossary On
Versions: 1 2 3 4 5 6 7 8 9 10 11 12 13 14 15 16 17 18 19 20 21
000
FTUS43 KLBF 211125
TAFLBF
TAF
KLBF 211125Z 2112/2212 VRB04KT 1/4SM FG VV001
     FM211300 12004KT P6SM FEW015 SCT250
     FM212100 20008KT P6SM VCTS SCT090CB
     FM212300 09008KT P6SM -TSRA BKN080CB
     FM220200 05006KT P6SM SCT050=

USA.gov is the U.S. government's official web portal to all federal, state and local government web resources and services.